sensor_id;sensor_type;location;lat;lon;timestamp;pressure;altitude;pressure_sealevel;temperature
68939;BMP180;59064;45.294;11.816;2023-07-09T00:01:45;101846.00;;;21.90
68939;BMP180;59064;45.294;11.816;2023-07-09T00:04:11;101843.00;;;21.88
68939;BMP180;59064;45.294;11.816;2023-07-09T00:06:37;101846.60;;;21.80
68939;BMP180;59064;45.294;11.816;2023-07-09T00:09:04;101846.40;;;21.70
68939;BMP180;59064;45.294;11.816;2023-07-09T00:11:31;101841.40;;;21.70
68939;BMP180;59064;45.294;11.816;2023-07-09T00:13:56;101837.80;;;21.70
68939;BMP180;59064;45.294;11.816;2023-07-09T00:16:24;101838.40;;;21.70
68939;BMP180;59064;45.294;11.816;2023-07-09T00:18:51;101835.80;;;21.66
68939;BMP180;59064;45.294;11.816;2023-07-09T00:21:18;101837.80;;;21.60
68939;BMP180;59064;45.294;11.816;2023-07-09T00:23:45;101834.40;;;21.60
68939;BMP180;59064;45.294;11.816;2023-07-09T00:26:14;101836.80;;;21.54
68939;BMP180;59064;45.294;11.816;2023-07-09T00:28:41;101833.40;;;21.50
68939;BMP180;59064;45.294;11.816;2023-07-09T00:31:15;101831.40;;;21.50
68939;BMP180;59064;45.294;11.816;2023-07-09T00:33:45;101836.60;;;21.50
68939;BMP180;59064;45.294;11.816;2023-07-09T00:36:18;101830.00;;;21.50
68939;BMP180;59064;45.294;11.816;2023-07-09T00:38:44;101829.00;;;21.42
68939;BMP180;59064;45.294;11.816;2023-07-09T00:41:19;101827.60;;;21.40
68939;BMP180;59064;45.294;11.816;2023-07-09T00:43:47;101829.00;;;21.40
68939;BMP180;59064;45.294;11.816;2023-07-09T00:48:42;101830.40;;;21.40
68939;BMP180;59064;45.294;11.816;2023-07-09T00:51:13;101828.00;;;21.32
68939;BMP180;59064;45.294;11.816;2023-07-09T00:53:39;101823.40;;;21.30
68939;BMP180;59064;45.294;11.816;2023-07-09T00:56:13;101827.20;;;21.30
68939;BMP180;59064;45.294;11.816;2023-07-09T00:58:40;101827.80;;;21.30
68939;BMP180;59064;45.294;11.816;2023-07-09T01:01:09;101824.60;;;21.30
68939;BMP180;59064;45.294;11.816;2023-07-09T01:03:52;101826.20;;;21.30
68939;BMP180;59064;45.294;11.816;2023-07-09T01:06:21;101830.20;;;21.30
68939;BMP180;59064;45.294;11.816;2023-07-09T01:08:49;101833.60;;;21.30
68939;BMP180;59064;45.294;11.816;2023-07-09T01:11:21;101834.60;;;21.32
68939;BMP180;59064;45.294;11.816;2023-07-09T01:13:53;101833.40;;;21.40
68939;BMP180;59064;45.294;11.816;2023-07-09T01:16:21;101833.40;;;21.40
68939;BMP180;59064;45.294;11.816;2023-07-09T01:18:52;101832.00;;;21.40
68939;BMP180;59064;45.294;11.816;2023-07-09T01:21:17;101827.80;;;21.30
68939;BMP180;59064;45.294;11.816;2023-07-09T01:23:44;101829.60;;;21.30
68939;BMP180;59064;45.294;11.816;2023-07-09T01:26:12;101830.80;;;21.26
68939;BMP180;59064;45.294;11.816;2023-07-09T01:28:38;101829.00;;;21.20
68939;BMP180;59064;45.294;11.816;2023-07-09T01:31:07;101831.80;;;21.10
68939;BMP180;59064;45.294;11.816;2023-07-09T01:33:33;101830.80;;;21.10
68939;BMP180;59064;45.294;11.816;2023-07-09T01:35:59;101833.00;;;21.04
68939;BMP180;59064;45.294;11.816;2023-07-09T01:38:28;101830.00;;;21.00
68939;BMP180;59064;45.294;11.816;2023-07-09T01:40:57;101828.40;;;21.00
68939;BMP180;59064;45.294;11.816;2023-07-09T01:43:23;101828.00;;;21.00
68939;BMP180;59064;45.294;11.816;2023-07-09T01:45:50;101832.40;;;21.00
68939;BMP180;59064;45.294;11.816;2023-07-09T01:48:17;101833.20;;;21.00
68939;BMP180;59064;45.294;11.816;2023-07-09T01:50:43;101838.40;;;21.00
68939;BMP180;59064;45.294;11.816;2023-07-09T01:53:21;101826.80;;;20.90
68939;BMP180;59064;45.294;11.816;2023-07-09T01:55:51;101830.20;;;20.90
68939;BMP180;59064;45.294;11.816;2023-07-09T01:58:17;101832.60;;;20.80
68939;BMP180;59064;45.294;11.816;2023-07-09T02:00:43;101827.40;;;20.70
68939;BMP180;59064;45.294;11.816;2023-07-09T02:03:10;101826.20;;;20.60
68939;BMP180;59064;45.294;11.816;2023-07-09T02:05:36;101824.80;;;20.56
68939;BMP180;59064;45.294;11.816;2023-07-09T02:08:03;101823.80;;;20.50
68939;BMP180;59064;45.294;11.816;2023-07-09T02:10:28;101824.40;;;20.50
68939;BMP180;59064;45.294;11.816;2023-07-09T02:12:54;101819.40;;;20.46
68939;BMP180;59064;45.294;11.816;2023-07-09T02:15:20;101819.40;;;20.40
68939;BMP180;59064;45.294;11.816;2023-07-09T02:17:45;101821.60;;;20.40
68939;BMP180;59064;45.294;11.816;2023-07-09T02:20:12;101821.40;;;20.40
68939;BMP180;59064;45.294;11.816;2023-07-09T02:22:42;101821.40;;;20.40
68939;BMP180;59064;45.294;11.816;2023-07-09T02:25:08;101822.00;;;20.40
68939;BMP180;59064;45.294;11.816;2023-07-09T02:27:35;101819.40;;;20.40
68939;BMP180;59064;45.294;11.816;2023-07-09T02:30:01;101820.40;;;20.40
68939;BMP180;59064;45.294;11.816;2023-07-09T02:32:27;101824.60;;;20.40
68939;BMP180;59064;45.294;11.816;2023-07-09T02:34:53;101822.80;;;20.46
68939;BMP180;59064;45.294;11.816;2023-07-09T02:37:21;101821.60;;;20.40
68939;BMP180;59064;45.294;11.816;2023-07-09T02:39:47;101819.80;;;20.40
68939;BMP180;59064;45.294;11.816;2023-07-09T02:42:14;101822.20;;;20.32
68939;BMP180;59064;45.294;11.816;2023-07-09T02:44:43;101827.40;;;20.20
68939;BMP180;59064;45.294;11.816;2023-07-09T02:47:10;101824.60;;;20.20
68939;BMP180;59064;45.294;11.816;2023-07-09T02:49:36;101825.00;;;20.10
68939;BMP180;59064;45.294;11.816;2023-07-09T02:52:01;101826.20;;;20.00
68939;BMP180;59064;45.294;11.816;2023-07-09T02:54:27;101824.00;;;20.00
68939;BMP180;59064;45.294;11.816;2023-07-09T02:56:53;101822.80;;;20.00
68939;BMP180;59064;45.294;11.816;2023-07-09T02:59:18;101824.20;;;20.00
68939;BMP180;59064;45.294;11.816;2023-07-09T03:01:45;101824.60;;;20.00
68939;BMP180;59064;45.294;11.816;2023-07-09T03:04:10;101828.60;;;20.08
68939;BMP180;59064;45.294;11.816;2023-07-09T03:06:36;101825.00;;;20.10
68939;BMP180;59064;45.294;11.816;2023-07-09T03:09:03;101828.40;;;20.10
68939;BMP180;59064;45.294;11.816;2023-07-09T03:11:30;101828.40;;;20.00
68939;BMP180;59064;45.294;11.816;2023-07-09T03:13:56;101828.20;;;20.00
68939;BMP180;59064;45.294;11.816;2023-07-09T03:16:22;101828.60;;;20.00
68939;BMP180;59064;45.294;11.816;2023-07-09T03:18:48;101823.60;;;19.90
68939;BMP180;59064;45.294;11.816;2023-07-09T03:21:13;101822.20;;;19.90
68939;BMP180;59064;45.294;11.816;2023-07-09T03:23:39;101821.80;;;19.80
68939;BMP180;59064;45.294;11.816;2023-07-09T03:26:04;101832.00;;;19.80
68939;BMP180;59064;45.294;11.816;2023-07-09T03:28:31;101835.60;;;19.80
68939;BMP180;59064;45.294;11.816;2023-07-09T03:30:57;101834.20;;;19.80
68939;BMP180;59064;45.294;11.816;2023-07-09T03:33:23;101829.80;;;19.70
68939;BMP180;59064;45.294;11.816;2023-07-09T03:35:50;101827.80;;;19.70
68939;BMP180;59064;45.294;11.816;2023-07-09T03:38:16;101830.60;;;19.60
68939;BMP180;59064;45.294;11.816;2023-07-09T03:40:42;101830.60;;;19.60
68939;BMP180;59064;45.294;11.816;2023-07-09T03:43:08;101833.00;;;19.60
68939;BMP180;59064;45.294;11.816;2023-07-09T03:45:36;101836.40;;;19.60
68939;BMP180;59064;45.294;11.816;2023-07-09T03:48:02;101832.80;;;19.60
68939;BMP180;59064;45.294;11.816;2023-07-09T03:50:27;101836.00;;;19.68
68939;BMP180;59064;45.294;11.816;2023-07-09T03:52:53;101832.80;;;19.70
68939;BMP180;59064;45.294;11.816;2023-07-09T03:55:18;101836.00;;;19.86
68939;BMP180;59064;45.294;11.816;2023-07-09T03:57:44;101830.80;;;19.98
68939;BMP180;59064;45.294;11.816;2023-07-09T04:00:10;101832.80;;;20.06
68939;BMP180;59064;45.294;11.816;2023-07-09T04:02:36;101832.40;;;20.10
68939;BMP180;59064;45.294;11.816;2023-07-09T04:05:03;101832.00;;;20.20
68939;BMP180;59064;45.294;11.816;2023-07-09T04:07:28;101837.40;;;20.20
68939;BMP180;59064;45.294;11.816;2023-07-09T04:09:54;101837.80;;;20.30
68939;BMP180;59064;45.294;11.816;2023-07-09T04:12:20;101836.20;;;20.40
68939;BMP180;59064;45.294;11.816;2023-07-09T04:14:45;101839.80;;;20.50
68939;BMP180;59064;45.294;11.816;2023-07-09T04:17:11;101833.40;;;20.50
68939;BMP180;59064;45.294;11.816;2023-07-09T04:19:36;101832.20;;;20.60
68939;BMP180;59064;45.294;11.816;2023-07-09T04:22:02;101831.80;;;20.70
68939;BMP180;59064;45.294;11.816;2023-07-09T04:24:27;101834.40;;;20.88
68939;BMP180;59064;45.294;11.816;2023-07-09T04:26:53;101837.00;;;20.96
68939;BMP180;59064;45.294;11.816;2023-07-09T04:29:22;101837.80;;;21.08
68939;BMP180;59064;45.294;11.816;2023-07-09T04:31:47;101834.00;;;21.20
68939;BMP180;59064;45.294;11.816;2023-07-09T04:34:13;101839.40;;;21.30
68939;BMP180;59064;45.294;11.816;2023-07-09T04:36:39;101839.80;;;21.40
68939;BMP180;59064;45.294;11.816;2023-07-09T04:39:04;101844.00;;;21.52
68939;BMP180;59064;45.294;11.816;2023-07-09T04:41:30;101847.60;;;21.68
68939;BMP180;59064;45.294;11.816;2023-07-09T04:43:55;101847.40;;;21.84
68939;BMP180;59064;45.294;11.816;2023-07-09T04:46:21;101847.40;;;21.96
68939;BMP180;59064;45.294;11.816;2023-07-09T04:48:46;101853.00;;;22.00
68939;BMP180;59064;45.294;11.816;2023-07-09T04:51:11;101849.40;;;22.10
68939;BMP180;59064;45.294;11.816;2023-07-09T04:53:37;101855.00;;;22.20
68939;BMP180;59064;45.294;11.816;2023-07-09T04:56:03;101848.60;;;22.40
68939;BMP180;59064;45.294;11.816;2023-07-09T04:58:29;101849.80;;;22.60
68939;BMP180;59064;45.294;11.816;2023-07-09T05:00:59;101851.60;;;22.86
68939;BMP180;59064;45.294;11.816;2023-07-09T05:03:24;101856.20;;;23.10
68939;BMP180;59064;45.294;11.816;2023-07-09T05:05:50;101855.80;;;23.20
68939;BMP180;59064;45.294;11.816;2023-07-09T05:08:15;101857.80;;;23.38
68939;BMP180;59064;45.294;11.816;2023-07-09T05:10:46;101865.00;;;23.50
68939;BMP180;59064;45.294;11.816;2023-07-09T05:13:14;101866.00;;;23.70
68939;BMP180;59064;45.294;11.816;2023-07-09T05:15:40;101869.20;;;23.90
68939;BMP180;59064;45.294;11.816;2023-07-09T05:18:06;101871.60;;;24.10
68939;BMP180;59064;45.294;11.816;2023-07-09T05:20:34;101873.40;;;24.34
68939;BMP180;59064;45.294;11.816;2023-07-09T05:23:00;101875.00;;;24.54
68939;BMP180;59064;45.294;11.816;2023-07-09T05:25:25;101870.60;;;24.68
68939;BMP180;59064;45.294;11.816;2023-07-09T05:27:51;101867.80;;;24.80
68939;BMP180;59064;45.294;11.816;2023-07-09T05:30:17;101875.40;;;25.00
68939;BMP180;59064;45.294;11.816;2023-07-09T05:32:43;101876.40;;;25.16
68939;BMP180;59064;45.294;11.816;2023-07-09T05:35:08;101875.60;;;25.24
68939;BMP180;59064;45.294;11.816;2023-07-09T05:37:35;101876.80;;;25.30
68939;BMP180;59064;45.294;11.816;2023-07-09T05:40:00;101865.80;;;25.30
68939;BMP180;59064;45.294;11.816;2023-07-09T05:42:26;101878.00;;;25.30
68939;BMP180;59064;45.294;11.816;2023-07-09T05:44:51;101874.20;;;25.26
68939;BMP180;59064;45.294;11.816;2023-07-09T05:47:17;101876.00;;;25.20
68939;BMP180;59064;45.294;11.816;2023-07-09T05:49:43;101874.40;;;25.36
68939;BMP180;59064;45.294;11.816;2023-07-09T05:52:08;101880.40;;;25.60
68939;BMP180;59064;45.294;11.816;2023-07-09T05:54:33;101884.80;;;25.80
68939;BMP180;59064;45.294;11.816;2023-07-09T05:56:59;101880.40;;;25.90
68939;BMP180;59064;45.294;11.816;2023-07-09T05:59:24;101880.80;;;25.90
68939;BMP180;59064;45.294;11.816;2023-07-09T06:01:50;101878.60;;;25.80
68939;BMP180;59064;45.294;11.816;2023-07-09T06:04:16;101885.60;;;25.70
68939;BMP180;59064;45.294;11.816;2023-07-09T06:06:42;101883.80;;;25.72
68939;BMP180;59064;45.294;11.816;2023-07-09T06:09:08;101886.20;;;25.90
68939;BMP180;59064;45.294;11.816;2023-07-09T06:11:34;101889.00;;;26.10
68939;BMP180;59064;45.294;11.816;2023-07-09T06:14:00;101887.40;;;26.20
68939;BMP180;59064;45.294;11.816;2023-07-09T06:16:26;101895.00;;;26.30
68939;BMP180;59064;45.294;11.816;2023-07-09T06:18:51;101898.40;;;26.50
68939;BMP180;59064;45.294;11.816;2023-07-09T06:21:17;101898.40;;;26.70
68939;BMP180;59064;45.294;11.816;2023-07-09T06:23:42;101901.40;;;26.80
68939;BMP180;59064;45.294;11.816;2023-07-09T06:26:08;101900.00;;;26.90
68939;BMP180;59064;45.294;11.816;2023-07-09T06:28:34;101902.40;;;27.00
68939;BMP180;59064;45.294;11.816;2023-07-09T06:31:00;101903.00;;;27.10
68939;BMP180;59064;45.294;11.816;2023-07-09T06:33:26;101903.00;;;27.20
68939;BMP180;59064;45.294;11.816;2023-07-09T06:36:00;101907.00;;;27.30
68939;BMP180;59064;45.294;11.816;2023-07-09T06:38:27;101912.40;;;27.40
68939;BMP180;59064;45.294;11.816;2023-07-09T06:40:53;101908.40;;;27.50
68939;BMP180;59064;45.294;11.816;2023-07-09T06:43:19;101911.00;;;27.68
68939;BMP180;59064;45.294;11.816;2023-07-09T06:46:03;101912.00;;;27.80
68939;BMP180;59064;45.294;11.816;2023-07-09T06:48:28;101912.00;;;27.74
68939;BMP180;59064;45.294;11.816;2023-07-09T06:50:55;101914.00;;;27.82
68939;BMP180;59064;45.294;11.816;2023-07-09T06:53:22;101911.20;;;27.70
68939;BMP180;59064;45.294;11.816;2023-07-09T06:55:47;101916.60;;;27.60
68939;BMP180;59064;45.294;11.816;2023-07-09T06:58:16;101912.60;;;27.80
68939;BMP180;59064;45.294;11.816;2023-07-09T07:00:41;101914.80;;;28.10
68939;BMP180;59064;45.294;11.816;2023-07-09T07:03:08;101914.00;;;28.38
68939;BMP180;59064;45.294;11.816;2023-07-09T07:05:35;101914.40;;;28.74
68939;BMP180;59064;45.294;11.816;2023-07-09T07:08:02;101915.80;;;28.70
68939;BMP180;59064;45.294;11.816;2023-07-09T07:10:27;101915.00;;;28.72
68939;BMP180;59064;45.294;11.816;2023-07-09T07:12:53;101916.60;;;28.80
68939;BMP180;59064;45.294;11.816;2023-07-09T07:15:19;101919.60;;;29.02
68939;BMP180;59064;45.294;11.816;2023-07-09T07:17:45;101922.20;;;29.20
68939;BMP180;59064;45.294;11.816;2023-07-09T07:20:12;101921.80;;;29.10
68939;BMP180;59064;45.294;11.816;2023-07-09T07:22:39;101918.00;;;29.10
68939;BMP180;59064;45.294;11.816;2023-07-09T07:25:05;101920.80;;;29.10
68939;BMP180;59064;45.294;11.816;2023-07-09T07:27:32;101916.40;;;29.10
68939;BMP180;59064;45.294;11.816;2023-07-09T07:29:57;101917.80;;;29.20
68939;BMP180;59064;45.294;11.816;2023-07-09T07:32:23;101916.20;;;29.50
68939;BMP180;59064;45.294;11.816;2023-07-09T07:34:49;101917.60;;;29.80
68939;BMP180;59064;45.294;11.816;2023-07-09T07:37:14;101920.80;;;29.80
68939;BMP180;59064;45.294;11.816;2023-07-09T07:39:40;101915.00;;;29.94
68939;BMP180;59064;45.294;11.816;2023-07-09T07:42:06;101914.80;;;29.78
68939;BMP180;59064;45.294;11.816;2023-07-09T07:44:32;101913.80;;;29.80
68939;BMP180;59064;45.294;11.816;2023-07-09T07:46:58;101911.80;;;29.84
68939;BMP180;59064;45.294;11.816;2023-07-09T07:49:23;101919.20;;;29.90
68939;BMP180;59064;45.294;11.816;2023-07-09T07:51:48;101917.60;;;30.02
68939;BMP180;59064;45.294;11.816;2023-07-09T07:54:14;101916.80;;;30.00
68939;BMP180;59064;45.294;11.816;2023-07-09T07:56:40;101916.20;;;30.00
68939;BMP180;59064;45.294;11.816;2023-07-09T07:59:05;101914.00;;;30.30
68939;BMP180;59064;45.294;11.816;2023-07-09T08:01:31;101915.20;;;30.40
68939;BMP180;59064;45.294;11.816;2023-07-09T08:03:56;101915.40;;;30.40
68939;BMP180;59064;45.294;11.816;2023-07-09T08:06:22;101917.40;;;30.52
68939;BMP180;59064;45.294;11.816;2023-07-09T08:08:48;101916.00;;;30.60
68939;BMP180;59064;45.294;11.816;2023-07-09T08:11:14;101918.40;;;30.50
68939;BMP180;59064;45.294;11.816;2023-07-09T08:13:39;101919.60;;;30.74
68939;BMP180;59064;45.294;11.816;2023-07-09T08:16:06;101919.80;;;31.00
68939;BMP180;59064;45.294;11.816;2023-07-09T08:18:31;101916.40;;;31.42
68939;BMP180;59064;45.294;11.816;2023-07-09T08:20:59;101918.40;;;31.70
68939;BMP180;59064;45.294;11.816;2023-07-09T08:23:24;101918.40;;;31.60
68939;BMP180;59064;45.294;11.816;2023-07-09T08:25:54;101917.80;;;31.60
68939;BMP180;59064;45.294;11.816;2023-07-09T08:28:20;101917.60;;;31.90
68939;BMP180;59064;45.294;11.816;2023-07-09T08:30:45;101919.60;;;32.32
68939;BMP180;59064;45.294;11.816;2023-07-09T08:33:11;101917.40;;;32.50
68939;BMP180;59064;45.294;11.816;2023-07-09T08:35:36;101922.40;;;32.44
68939;BMP180;59064;45.294;11.816;2023-07-09T08:38:02;101921.80;;;32.56
68939;BMP180;59064;45.294;11.816;2023-07-09T08:40:27;101921.40;;;32.40
68939;BMP180;59064;45.294;11.816;2023-07-09T08:43:00;101918.80;;;32.50
68939;BMP180;59064;45.294;11.816;2023-07-09T08:50:41;101914.20;;;31.90
68939;BMP180;59064;45.294;11.816;2023-07-09T08:53:20;101916.60;;;32.20
68939;BMP180;59064;45.294;11.816;2023-07-09T08:55:48;101914.80;;;32.42
68939;BMP180;59064;45.294;11.816;2023-07-09T08:58:30;101914.40;;;32.40
68939;BMP180;59064;45.294;11.816;2023-07-09T09:00:57;101915.60;;;32.44
68939;BMP180;59064;45.294;11.816;2023-07-09T09:05:55;101912.20;;;32.70
68939;BMP180;59064;45.294;11.816;2023-07-09T09:11:10;101906.00;;;32.92
68939;BMP180;59064;45.294;11.816;2023-07-09T09:13:38;101909.60;;;33.22
68939;BMP180;59064;45.294;11.816;2023-07-09T09:16:09;101907.60;;;33.60
68939;BMP180;59064;45.294;11.816;2023-07-09T09:18:43;101909.20;;;33.92
68939;BMP180;59064;45.294;11.816;2023-07-09T09:21:23;101911.80;;;34.22
68939;BMP180;59064;45.294;11.816;2023-07-09T09:23:54;101905.60;;;34.34
68939;BMP180;59064;45.294;11.816;2023-07-09T09:26:42;101911.80;;;34.30
68939;BMP180;59064;45.294;11.816;2023-07-09T09:29:14;101914.40;;;34.18
68939;BMP180;59064;45.294;11.816;2023-07-09T09:31:41;101915.20;;;34.00
68939;BMP180;59064;45.294;11.816;2023-07-09T09:34:20;101916.60;;;33.80
68939;BMP180;59064;45.294;11.816;2023-07-09T09:36:47;101920.60;;;34.00
68939;BMP180;59064;45.294;11.816;2023-07-09T09:39:12;101925.60;;;34.10
68939;BMP180;59064;45.294;11.816;2023-07-09T09:41:38;101924.00;;;34.00
68939;BMP180;59064;45.294;11.816;2023-07-09T09:44:04;101920.80;;;33.80
68939;BMP180;59064;45.294;11.816;2023-07-09T09:46:32;101924.60;;;33.70
68939;BMP180;59064;45.294;11.816;2023-07-09T09:49:02;101927.00;;;33.94
68939;BMP180;59064;45.294;11.816;2023-07-09T09:51:29;101924.80;;;34.32
68939;BMP180;59064;45.294;11.816;2023-07-09T09:54:00;101928.00;;;34.68
68939;BMP180;59064;45.294;11.816;2023-07-09T09:56:35;101930.20;;;34.50
68939;BMP180;59064;45.294;11.816;2023-07-09T09:59:03;101926.60;;;34.48
68939;BMP180;59064;45.294;11.816;2023-07-09T10:01:33;101923.40;;;34.62
68939;BMP180;59064;45.294;11.816;2023-07-09T10:04:03;101927.80;;;34.90
68939;BMP180;59064;45.294;11.816;2023-07-09T10:06:38;101926.40;;;35.20
68939;BMP180;59064;45.294;11.816;2023-07-09T10:11:49;101930.20;;;35.10
68939;BMP180;59064;45.294;11.816;2023-07-09T10:16:45;101929.60;;;34.42
68939;BMP180;59064;45.294;11.816;2023-07-09T10:22:00;101934.00;;;34.32
68939;BMP180;59064;45.294;11.816;2023-07-09T10:27:21;101931.40;;;35.06
68939;BMP180;59064;45.294;11.816;2023-07-09T10:36:02;101928.20;;;34.50
68939;BMP180;59064;45.294;11.816;2023-07-09T10:41:09;101924.00;;;34.90
68939;BMP180;59064;45.294;11.816;2023-07-09T10:43:43;101926.80;;;35.20
68939;BMP180;59064;45.294;11.816;2023-07-09T10:46:14;101924.00;;;34.90
68939;BMP180;59064;45.294;11.816;2023-07-09T10:48:42;101927.60;;;35.02
68939;BMP180;59064;45.294;11.816;2023-07-09T10:56:42;101936.80;;;35.26
68939;BMP180;59064;45.294;11.816;2023-07-09T10:59:27;101932.40;;;35.30
68939;BMP180;59064;45.294;11.816;2023-07-09T11:02:16;101930.60;;;35.50
68939;BMP180;59064;45.294;11.816;2023-07-09T11:04:49;101921.20;;;35.40
68939;BMP180;59064;45.294;11.816;2023-07-09T11:07:21;101921.80;;;35.58
68939;BMP180;59064;45.294;11.816;2023-07-09T11:09:49;101920.20;;;35.50
68939;BMP180;59064;45.294;11.816;2023-07-09T11:12:39;101929.40;;;35.24
68939;BMP180;59064;45.294;11.816;2023-07-09T11:15:17;101928.00;;;35.00
68939;BMP180;59064;45.294;11.816;2023-07-09T11:17:46;101922.20;;;35.04
68939;BMP180;59064;45.294;11.816;2023-07-09T11:20:23;101925.80;;;35.42
68939;BMP180;59064;45.294;11.816;2023-07-09T11:23:04;101925.80;;;35.80
68939;BMP180;59064;45.294;11.816;2023-07-09T11:25:45;101921.00;;;35.80
68939;BMP180;59064;45.294;11.816;2023-07-09T11:28:11;101919.60;;;35.68
68939;BMP180;59064;45.294;11.816;2023-07-09T11:33:28;101915.00;;;35.50
68939;BMP180;59064;45.294;11.816;2023-07-09T11:36:07;101912.80;;;35.50
68939;BMP180;59064;45.294;11.816;2023-07-09T11:38:42;101907.60;;;35.40
68939;BMP180;59064;45.294;11.816;2023-07-09T11:49:49;101914.20;;;35.50
68939;BMP180;59064;45.294;11.816;2023-07-09T11:52:22;101906.60;;;35.94
68939;BMP180;59064;45.294;11.816;2023-07-09T11:54:49;101906.20;;;36.52
68939;BMP180;59064;45.294;11.816;2023-07-09T11:57:17;101908.00;;;36.50
68939;BMP180;59064;45.294;11.816;2023-07-09T11:59:43;101902.60;;;36.30
68939;BMP180;59064;45.294;11.816;2023-07-09T12:02:19;101899.60;;;36.40
68939;BMP180;59064;45.294;11.816;2023-07-09T12:04:50;101894.00;;;36.20
68939;BMP180;59064;45.294;11.816;2023-07-09T12:07:16;101891.80;;;36.00
68939;BMP180;59064;45.294;11.816;2023-07-09T12:09:49;101889.80;;;36.12
68939;BMP180;59064;45.294;11.816;2023-07-09T12:12:24;101893.60;;;36.42
68939;BMP180;59064;45.294;11.816;2023-07-09T12:14:50;101890.00;;;36.72
68939;BMP180;59064;45.294;11.816;2023-07-09T12:17:15;101886.60;;;36.90
68939;BMP180;59064;45.294;11.816;2023-07-09T12:19:41;101886.40;;;37.20
68939;BMP180;59064;45.294;11.816;2023-07-09T12:22:17;101887.60;;;37.18
68939;BMP180;59064;45.294;11.816;2023-07-09T12:24:46;101887.80;;;37.10
68939;BMP180;59064;45.294;11.816;2023-07-09T12:27:24;101879.00;;;37.00
68939;BMP180;59064;45.294;11.816;2023-07-09T12:29:53;101875.40;;;37.00
68939;BMP180;59064;45.294;11.816;2023-07-09T12:32:19;101879.00;;;37.00
68939;BMP180;59064;45.294;11.816;2023-07-09T12:34:51;101871.60;;;36.80
68939;BMP180;59064;45.294;11.816;2023-07-09T12:37:18;101872.00;;;37.00
68939;BMP180;59064;45.294;11.816;2023-07-09T12:39:44;101862.20;;;37.20
68939;BMP180;59064;45.294;11.816;2023-07-09T12:42:15;101868.80;;;37.24
68939;BMP180;59064;45.294;11.816;2023-07-09T12:44:41;101864.00;;;37.10
68939;BMP180;59064;45.294;11.816;2023-07-09T12:47:11;101864.80;;;37.20
68939;BMP180;59064;45.294;11.816;2023-07-09T12:49:40;101859.60;;;37.32
68939;BMP180;59064;45.294;11.816;2023-07-09T12:52:18;101855.00;;;37.78
68939;BMP180;59064;45.294;11.816;2023-07-09T12:55:01;101850.40;;;38.10
68939;BMP180;59064;45.294;11.816;2023-07-09T12:57:28;101845.00;;;37.84
68939;BMP180;59064;45.294;11.816;2023-07-09T12:59:55;101850.00;;;37.60
68939;BMP180;59064;45.294;11.816;2023-07-09T13:02:27;101849.20;;;37.30
68939;BMP180;59064;45.294;11.816;2023-07-09T13:05:06;101849.80;;;37.26
68939;BMP180;59064;45.294;11.816;2023-07-09T13:07:39;101845.60;;;37.66
68939;BMP180;59064;45.294;11.816;2023-07-09T13:10:21;101839.40;;;37.84
68939;BMP180;59064;45.294;11.816;2023-07-09T13:12:49;101838.20;;;37.80
68939;BMP180;59064;45.294;11.816;2023-07-09T13:17:47;101836.80;;;38.38
68939;BMP180;59064;45.294;11.816;2023-07-09T13:20:13;101843.80;;;38.22
68939;BMP180;59064;45.294;11.816;2023-07-09T13:22:39;101843.80;;;38.20
68939;BMP180;59064;45.294;11.816;2023-07-09T13:25:07;101839.80;;;38.30
68939;BMP180;59064;45.294;11.816;2023-07-09T13:27:33;101840.80;;;38.42
68939;BMP180;59064;45.294;11.816;2023-07-09T13:29:58;101842.00;;;38.28
68939;BMP180;59064;45.294;11.816;2023-07-09T13:32:25;101839.40;;;38.02
68939;BMP180;59064;45.294;11.816;2023-07-09T13:34:51;101833.00;;;38.20
68939;BMP180;59064;45.294;11.816;2023-07-09T13:37:16;101832.00;;;38.54
68939;BMP180;59064;45.294;11.816;2023-07-09T13:39:42;101829.60;;;39.02
68939;BMP180;59064;45.294;11.816;2023-07-09T13:42:11;101830.60;;;39.46
68939;BMP180;59064;45.294;11.816;2023-07-09T13:44:38;101833.80;;;39.76
68939;BMP180;59064;45.294;11.816;2023-07-09T13:47:04;101830.80;;;40.20
68939;BMP180;59064;45.294;11.816;2023-07-09T13:49:31;101829.80;;;40.20
68939;BMP180;59064;45.294;11.816;2023-07-09T13:51:58;101832.20;;;40.08
68939;BMP180;59064;45.294;11.816;2023-07-09T13:54:28;101825.40;;;40.00
68939;BMP180;59064;45.294;11.816;2023-07-09T13:57:03;101826.40;;;40.40
68939;BMP180;59064;45.294;11.816;2023-07-09T13:59:29;101828.60;;;40.80
68939;BMP180;59064;45.294;11.816;2023-07-09T14:01:57;101826.20;;;40.88
68939;BMP180;59064;45.294;11.816;2023-07-09T14:04:24;101826.40;;;40.60
68939;BMP180;59064;45.294;11.816;2023-07-09T14:06:50;101824.40;;;40.70
68939;BMP180;59064;45.294;11.816;2023-07-09T14:09:16;101823.60;;;40.86
68939;BMP180;59064;45.294;11.816;2023-07-09T14:11:45;101825.20;;;40.90
68939;BMP180;59064;45.294;11.816;2023-07-09T14:14:32;101822.00;;;41.08
68939;BMP180;59064;45.294;11.816;2023-07-09T14:16:58;101818.60;;;41.30
68939;BMP180;59064;45.294;11.816;2023-07-09T14:19:24;101818.00;;;41.64
68939;BMP180;59064;45.294;11.816;2023-07-09T14:21:51;101819.00;;;42.34
68939;BMP180;59064;45.294;11.816;2023-07-09T14:24:26;101820.40;;;42.44
68939;BMP180;59064;45.294;11.816;2023-07-09T14:26:53;101818.20;;;42.50
68939;BMP180;59064;45.294;11.816;2023-07-09T14:29:18;101821.00;;;42.50
68939;BMP180;59064;45.294;11.816;2023-07-09T14:31:45;101815.80;;;42.50
68939;BMP180;59064;45.294;11.816;2023-07-09T14:34:27;101815.20;;;42.72
68939;BMP180;59064;45.294;11.816;2023-07-09T14:36:55;101813.60;;;43.10
68939;BMP180;59064;45.294;11.816;2023-07-09T14:39:21;101811.20;;;43.50
68939;BMP180;59064;45.294;11.816;2023-07-09T14:41:47;101810.80;;;43.56